Time;durP1;ratioP1;P1;durP2;ratioP2;P2;SDS_P1;SDS_P2;PMS_P1;PMS_P2;Temp;Humidity;BMP_temperature;BMP_pressure;BME280_temperature;BME280_humidity;BME280_pressure;Samples;Min_cycle;Max_cycle;Signal;HPM_P1;HPM_P2
2023/09/23 00:00:49;;;;;;;8.60;4.95;;;13.20;90.40;;;;;;5082611;28;20035;-51
2023/09/23 00:03:16;;;;;;;6.60;3.90;;;13.20;90.40;;;;;;5080999;28;20020;-51
2023/09/23 00:05:43;;;;;;;6.35;4.70;;;13.20;90.40;;;;;;5072545;28;20025;-48
2023/09/23 00:08:10;;;;;;;6.63;5.22;;;13.20;90.30;;;;;;5054388;28;20029;-53
2023/09/23 00:10:39;;;;;;;9.20;5.53;;;13.30;90.20;;;;;;5081398;28;20341;-50
2023/09/23 00:13:05;;;;;;;6.90;4.83;;;13.30;90.20;;;;;;5092772;28;20441;-52
2023/09/23 00:15:35;;;;;;;8.63;5.07;;;13.30;90.20;;;;;;5088892;28;20025;-49
2023/09/23 00:18:04;;;;;;;5.80;4.75;;;13.30;90.20;;;;;;5070929;28;20041;-49
2023/09/23 00:20:38;;;;;;;7.43;4.97;;;13.30;90.20;;;;;;5071878;28;20036;-47
2023/09/23 00:23:06;;;;;;;7.13;4.78;;;13.30;90.20;;;;;;5072793;28;20457;-50
2023/09/23 00:25:34;;;;;;;6.80;5.22;;;13.30;90.30;;;;;;5078089;28;20365;-49
2023/09/23 00:28:00;;;;;;;5.80;4.65;;;13.30;90.30;;;;;;5095648;28;20032;-48
2023/09/23 00:30:29;;;;;;;5.97;5.35;;;13.30;90.20;;;;;;5081258;28;20354;-51
2023/09/23 00:32:56;;;;;;;6.80;5.88;;;13.30;90.20;;;;;;5084599;28;20027;-47
2023/09/23 00:35:28;;;;;;;5.93;4.88;;;13.30;90.20;;;;;;5088943;28;20457;-54
2023/09/23 00:37:55;;;;;;;5.85;5.15;;;13.30;90.30;;;;;;5082436;28;20055;-48
2023/09/23 00:40:32;;;;;;;6.07;5.43;;;13.30;90.30;;;;;;5091932;28;20028;-53
2023/09/23 00:43:11;;;;;;;6.55;5.00;;;13.30;90.30;;;;;;5076148;28;20403;-48
2023/09/23 00:45:48;;;;;;;10.52;5.40;;;13.30;90.40;;;;;;5062645;28;20380;-53
2023/09/23 00:48:21;;;;;;;7.90;5.15;;;13.30;90.30;;;;;;5095911;28;20437;-48
2023/09/23 00:50:47;;;;;;;5.60;4.40;;;13.30;90.40;;;;;;5079606;28;20051;-52
2023/09/23 00:53:16;;;;;;;5.80;5.20;;;13.30;90.50;;;;;;5088870;28;20032;-50
2023/09/23 00:55:55;;;;;;;6.37;4.80;;;13.30;90.50;;;;;;5079363;28;20043;-50
2023/09/23 00:58:36;;;;;;;;;;;13.40;90.50;;;;;;5094282;28;20353;-53
2023/09/23 01:01:07;;;;;;;7.22;5.88;;;13.40;90.60;;;;;;5091383;28;19929;-49
2023/09/23 01:03:38;;;;;;;6.90;5.85;;;13.30;90.50;;;;;;5089712;28;20031;-53
2023/09/23 01:06:28;;;;;;;8.77;5.40;;;13.30;90.50;;;;;;5095589;28;20381;-51
2023/09/23 01:09:00;;;;;;;7.07;5.32;;;13.30;90.60;;;;;;5075629;28;20182;-48
2023/09/23 01:11:27;;;;;;;6.40;5.40;;;13.30;90.60;;;;;;5081544;28;20082;-48
2023/09/23 01:13:58;;;;;;;6.35;5.75;;;13.30;90.40;;;;;;5095730;28;20047;-51
2023/09/23 01:16:25;;;;;;;6.95;6.15;;;13.30;90.50;;;;;;5090593;28;20033;-53
2023/09/23 01:18:55;;;;;;;5.18;4.47;;;13.30;90.60;;;;;;5075421;28;20036;-47
2023/09/23 01:21:23;;;;;;;6.13;5.20;;;13.20;90.40;;;;;;5065925;28;20040;-54
2023/09/23 01:23:50;;;;;;;5.55;4.88;;;13.20;90.40;;;;;;5080113;28;20012;-48
2023/09/23 01:26:17;;;;;;;5.80;5.20;;;13.20;90.50;;;;;;5057606;28;20035;-51
2023/09/23 01:28:47;;;;;;;6.82;5.30;;;13.20;90.60;;;;;;5074867;28;20032;-52
2023/09/23 01:31:13;;;;;;;5.28;4.32;;;13.10;90.40;;;;;;5095510;28;20051;-51
2023/09/23 01:33:39;;;;;;;6.35;5.35;;;13.10;90.50;;;;;;5092525;28;20032;-52
2023/09/23 01:36:09;;;;;;;7.32;4.40;;;13.00;90.40;;;;;;5083773;28;20028;-52
2023/09/23 01:38:36;;;;;;;5.07;4.38;;;13.00;90.50;;;;;;5093550;28;20490;-49
2023/09/23 01:41:04;;;;;;;9.07;5.63;;;13.00;90.60;;;;;;5091784;28;20020;-50
2023/09/23 01:43:30;;;;;;;8.23;5.88;;;13.00;90.70;;;;;;5092979;28;20034;-48
2023/09/23 01:46:03;;;;;;;7.68;5.20;;;13.00;90.90;;;;;;5081287;28;20093;-49
2023/09/23 01:48:31;;;;;;;6.10;5.28;;;13.00;90.80;;;;;;5082830;28;20413;-47
2023/09/23 01:51:01;;;;;;;6.13;5.45;;;13.00;90.90;;;;;;5074410;28;20373;-50
2023/09/23 01:53:28;;;;;;;6.70;5.30;;;13.00;90.90;;;;;;5075020;28;20032;-47
2023/09/23 01:55:54;;;;;;;6.47;5.35;;;12.90;90.80;;;;;;5062681;28;20032;-49
2023/09/23 01:58:22;;;;;;;6.22;5.30;;;12.90;90.70;;;;;;5094603;28;20448;-49
2023/09/23 02:00:55;;;;;;;7.68;5.60;;;12.90;90.80;;;;;;5087429;28;20074;-51
2023/09/23 02:03:25;;;;;;;6.95;5.40;;;12.90;90.80;;;;;;5074779;28;20086;-50
2023/09/23 02:05:52;;;;;;;7.82;5.80;;;12.80;90.80;;;;;;5056650;28;20029;-51
2023/09/23 02:08:19;;;;;;;7.10;5.85;;;12.80;90.80;;;;;;5083461;28;20093;-46
2023/09/23 02:10:48;;;;;;;7.60;6.32;;;12.80;90.80;;;;;;5094463;28;20036;-52
2023/09/23 02:13:16;;;;;;;11.07;5.68;;;12.70;90.90;;;;;;5077531;28;20089;-52
2023/09/23 02:15:45;;;;;;;7.35;6.60;;;12.70;90.90;;;;;;5093269;28;20028;-50
2023/09/23 02:18:14;;;;;;;8.82;7.38;;;12.70;90.90;;;;;;5093674;28;20436;-50
2023/09/23 02:20:44;;;;;;;7.35;6.65;;;12.60;90.70;;;;;;5086320;28;20025;-51
2023/09/23 02:23:11;;;;;;;7.78;6.97;;;12.50;91.00;;;;;;5074415;28;20033;-50
2023/09/23 02:25:41;;;;;;;7.38;6.57;;;12.40;91.40;;;;;;5073979;28;20048;-51
2023/09/23 02:28:09;;;;;;;7.65;6.85;;;12.40;91.50;;;;;;5074025;28;20029;-51
2023/09/23 02:30:36;;;;;;;9.70;7.47;;;12.40;91.60;;;;;;5083050;28;20020;-51
2023/09/23 02:33:03;;;;;;;7.90;7.10;;;12.40;91.70;;;;;;5094223;28;20043;-52
2023/09/23 02:35:30;;;;;;;8.65;7.35;;;12.50;91.80;;;;;;5084145;28;20394;-48
2023/09/23 02:37:58;;;;;;;9.23;7.68;;;12.40;91.90;;;;;;5073463;28;20109;-50
2023/09/23 02:40:27;;;;;;;9.50;7.90;;;12.40;91.80;;;;;;5062636;28;20093;-50
2023/09/23 02:42:54;;;;;;;8.63;7.20;;;12.40;91.80;;;;;;5094172;28;20141;-52
2023/09/23 02:45:20;;;;;;;8.75;7.45;;;12.40;91.80;;;;;;5072666;28;20029;-52
2023/09/23 02:47:47;;;;;;;8.45;7.65;;;12.40;91.70;;;;;;5074100;28;20020;-50
2023/09/23 02:50:17;;;;;;;9.02;8.13;;;12.40;91.80;;;;;;5056290;28;20028;-49
2023/09/23 02:52:48;;;;;;;10.50;8.23;;;12.40;91.70;;;;;;5082824;28;20036;-52
2023/09/23 02:55:16;;;;;;;9.40;8.50;;;12.40;91.90;;;;;;5093725;28;20073;-49
2023/09/23 02:57:46;;;;;;;10.20;8.15;;;12.40;91.90;;;;;;5061383;28;20036;-49
2023/09/23 03:00:21;;;;;;;10.68;8.70;;;12.40;92.00;;;;;;5056584;28;20036;-49
2023/09/23 03:02:56;;;;;;;8.98;8.07;;;12.40;92.10;;;;;;5092732;28;20039;-52
2023/09/23 03:05:26;;;;;;;10.70;8.90;;;12.40;92.30;;;;;;5082902;28;20195;-52
2023/09/23 03:08:03;;;;;;;10.32;8.63;;;12.50;92.30;;;;;;5073367;28;20033;-49
2023/09/23 03:10:39;;;;;;;11.18;9.02;;;12.40;92.30;;;;;;5077007;28;20447;-52
2023/09/23 03:13:17;;;;;;;9.45;8.45;;;12.50;92.50;;;;;;5076638;28;20040;-50
2023/09/23 03:18:33;;;;;;;11.10;9.02;;;12.50;92.60;;;;;;5077782;28;20074;-47
2023/09/23 03:21:10;;;;;;;10.20;9.13;;;12.50;92.60;;;;;;5073648;28;20069;-51
2023/09/23 03:23:41;;;;;;;14.23;9.93;;;12.60;92.60;;;;;;5083491;28;20028;-49
2023/09/23 03:26:09;;;;;;;10.73;9.63;;;12.60;92.60;;;;;;5075270;28;20338;-50
2023/09/23 03:28:39;;;;;;;12.63;9.07;;;12.60;92.70;;;;;;5073801;28;20039;-51
2023/09/23 03:31:08;;;;;;;9.65;8.65;;;12.60;92.80;;;;;;5060277;28;20071;-48
2023/09/23 03:33:38;;;;;;;9.77;8.43;;;12.60;92.90;;;;;;5078203;28;20036;-47
2023/09/23 03:36:12;;;;;;;10.00;8.07;;;12.60;92.80;;;;;;5073482;28;20033;-51
2023/09/23 03:38:38;;;;;;;8.45;7.43;;;12.60;92.90;;;;;;5072536;28;20052;-46
2023/09/23 03:41:11;;;;;;;12.20;8.90;;;12.70;92.90;;;;;;5077631;28;20532;-48
2023/09/23 03:43:39;;;;;;;9.70;8.25;;;12.70;93.00;;;;;;5092333;28;20077;-51
2023/09/23 03:46:18;;;;;;;9.57;8.55;;;12.70;93.00;;;;;;5077941;28;20024;-50
2023/09/23 03:48:46;;;;;;;12.17;8.60;;;12.70;93.00;;;;;;5092893;28;20469;-47
2023/09/23 03:51:14;;;;;;;9.77;8.27;;;12.70;93.00;;;;;;5093018;28;20070;-49
2023/09/23 03:53:42;;;;;;;10.07;7.88;;;12.70;92.90;;;;;;5069312;28;20286;-48
2023/09/23 03:56:10;;;;;;;10.13;8.40;;;12.70;92.90;;;;;;5075156;28;20040;-47
2023/09/23 03:58:38;;;;;;;10.52;8.80;;;12.70;92.90;;;;;;5092959;28;20036;-48
2023/09/23 04:01:13;;;;;;;9.10;7.85;;;12.70;93.00;;;;;;5085644;28;20025;-51
2023/09/23 04:03:43;;;;;;;11.20;8.18;;;12.70;92.90;;;;;;5072768;28;20020;-48
2023/09/23 04:06:09;;;;;;;8.23;7.07;;;12.70;93.00;;;;;;5072681;28;20104;-49
2023/09/23 04:08:39;;;;;;;9.43;7.07;;;12.80;93.00;;;;;;5072601;28;20189;-48
2023/09/23 04:11:07;;;;;;;9.07;6.85;;;12.70;93.00;;;;;;5078129;28;20028;-49
2023/09/23 04:13:34;;;;;;;8.70;7.22;;;12.80;93.00;;;;;;5092966;28;20431;-48
2023/09/23 04:16:05;;;;;;;8.20;6.93;;;12.80;93.00;;;;;;5087324;28;20084;-49
2023/09/23 04:18:34;;;;;;;7.05;6.03;;;12.80;93.00;;;;;;5092845;28;20085;-50
2023/09/23 04:21:04;;;;;;;10.18;5.80;;;12.80;93.00;;;;;;5091528;28;20028;-48
2023/09/23 04:23:39;;;;;;;6.97;6.05;;;12.80;93.00;;;;;;5081579;28;20051;-50
2023/09/23 04:26:07;;;;;;;5.65;5.05;;;12.90;93.00;;;;;;5092878;28;20028;-52
2023/09/23 04:28:34;;;;;;;6.50;5.13;;;12.80;92.90;;;;;;5092506;28;20107;-50
2023/09/23 04:31:02;;;;;;;6.18;4.97;;;12.80;92.80;;;;;;5075448;28;20138;-49
2023/09/23 04:33:29;;;;;;;6.10;4.07;;;12.90;92.90;;;;;;5092546;28;20025;-48
2023/09/23 04:35:56;;;;;;;6.00;4.70;;;12.90;92.80;;;;;;5070183;28;20453;-49
2023/09/23 04:38:24;;;;;;;4.60;3.88;;;12.80;92.60;;;;;;5071786;28;20087;-49
2023/09/23 04:40:52;;;;;;;6.32;4.75;;;12.80;92.60;;;;;;5071288;28;20032;-48
2023/09/23 04:43:25;;;;;;;9.70;4.68;;;12.80;92.60;;;;;;5082122;28;20032;-47
2023/09/23 04:45:53;;;;;;;5.72;4.35;;;12.80;92.70;;;;;;5092538;28;20035;-47
2023/09/23 04:48:24;;;;;;;4.15;3.33;;;12.80;92.60;;;;;;5092128;28;20115;-50
2023/09/23 04:51:00;;;;;;;;;;;12.80;92.70;;;;;;5075638;28;20032;-46
2023/09/23 04:53:27;;;;;;;4.22;3.47;;;12.80;92.70;;;;;;5091820;28;19964;-52
2023/09/23 04:55:58;;;;;;;5.38;3.55;;;12.90;92.80;;;;;;5064559;28;20039;-47
2023/09/23 04:58:25;;;;;;;4.75;3.08;;;12.80;92.70;;;;;;5071492;28;20040;-48
2023/09/23 05:00:52;;;;;;;5.03;3.78;;;12.80;92.70;;;;;;5071723;28;20020;-51
2023/09/23 05:03:20;;;;;;;4.43;3.30;;;12.90;92.60;;;;;;5076050;28;20025;-49
2023/09/23 05:05:49;;;;;;;4.20;2.53;;;12.80;92.60;;;;;;5071948;28;20394;-51
2023/09/23 05:08:16;;;;;;;4.00;2.42;;;12.80;92.70;;;;;;5071628;28;20086;-48
2023/09/23 05:10:44;;;;;;;3.80;2.90;;;12.80;92.60;;;;;;5053889;28;20036;-48
2023/09/23 05:13:11;;;;;;;6.95;4.28;;;12.80;92.60;;;;;;5083477;28;20031;-49
2023/09/23 05:15:37;;;;;;;6.95;3.13;;;12.80;92.60;;;;;;5089119;28;20039;-48
2023/09/23 05:18:03;;;;;;;5.20;3.13;;;12.80;92.60;;;;;;5057415;28;20485;-50
2023/09/23 05:20:33;;;;;;;4.85;2.95;;;12.80;92.50;;;;;;5075031;28;20091;-52
2023/09/23 05:23:05;;;;;;;5.10;3.17;;;12.80;92.60;;;;;;5081926;28;20031;-49
2023/09/23 05:25:36;;;;;;;4.70;2.83;;;12.80;92.50;;;;;;5081480;28;20024;-50
2023/09/23 05:28:04;;;;;;;4.05;2.83;;;12.80;92.50;;;;;;5074468;28;20108;-47
2023/09/23 05:30:30;;;;;;;4.65;3.03;;;12.80;92.30;;;;;;5063685;28;20475;-50
2023/09/23 05:33:02;;;;;;;5.93;3.35;;;12.70;92.40;;;;;;5094522;28;20111;-51
2023/09/23 05:35:28;;;;;;;4.90;3.17;;;12.80;92.50;;;;;;5095153;28;20040;-46
2023/09/23 05:37:56;;;;;;;4.75;2.92;;;12.80;92.40;;;;;;5085172;28;20029;-52
2023/09/23 05:40:26;;;;;;;3.72;3.08;;;12.80;92.50;;;;;;5075058;28;20346;-50
2023/09/23 05:42:55;;;;;;;4.80;2.65;;;12.80;92.30;;;;;;5084278;28;20453;-49
2023/09/23 05:45:26;;;;;;;4.45;3.17;;;12.70;92.40;;;;;;5085728;28;20032;-45
2023/09/23 05:47:53;;;;;;;5.60;2.70;;;12.70;92.20;;;;;;5081270;28;20012;-52
2023/09/23 05:50:20;;;;;;;5.85;4.20;;;12.70;92.20;;;;;;5095155;28;20032;-46
2023/09/23 05:52:53;;;;;;;6.10;3.30;;;12.60;92.10;;;;;;5093957;28;20020;-49
2023/09/23 05:55:20;;;;;;;4.95;3.17;;;12.60;92.20;;;;;;5092437;28;20112;-50
2023/09/23 05:57:52;;;;;;;6.40;3.28;;;12.60;92.00;;;;;;5094563;28;20028;-46
2023/09/23 06:00:20;;;;;;;5.97;3.88;;;12.50;91.90;;;;;;5093899;28;20035;-52
2023/09/23 06:02:47;;;;;;;5.32;3.67;;;12.50;92.00;;;;;;5083784;28;20025;-47
2023/09/23 06:05:14;;;;;;;7.38;4.72;;;12.40;92.00;;;;;;5074213;28;20545;-49
2023/09/23 06:07:45;;;;;;;7.22;4.38;;;12.40;92.00;;;;;;5090473;28;20036;-51
2023/09/23 06:10:11;;;;;;;6.60;4.30;;;12.40;92.00;;;;;;5092901;28;20042;-46
2023/09/23 06:12:42;;;;;;;4.90;4.40;;;12.40;92.00;;;;;;5074526;28;20028;-45
2023/09/23 06:15:09;;;;;;;;;;;12.30;92.00;;;;;;5074883;28;20080;-45
2023/09/23 06:17:40;;;;;;;6.75;4.78;;;12.30;92.10;;;;;;5074555;28;19905;-46
2023/09/23 06:20:13;;;;;;;8.00;5.28;;;12.30;92.10;;;;;;5091113;28;20727;-45
2023/09/23 06:22:42;;;;;;;6.95;5.10;;;12.30;92.10;;;;;;5091515;28;20115;-46
2023/09/23 06:25:10;;;;;;;9.60;5.45;;;12.30;92.10;;;;;;5094097;28;20075;-49
2023/09/23 06:27:38;;;;;;;6.28;5.32;;;12.30;92.00;;;;;;5076033;28;20052;-47
2023/09/23 06:30:05;;;;;;;8.95;5.30;;;12.30;91.90;;;;;;5083019;28;20039;-44
2023/09/23 06:32:32;;;;;;;8.93;5.65;;;12.30;92.00;;;;;;5056312;28;20580;-48
2023/09/23 06:35:03;;;;;;;7.13;6.15;;;12.30;92.00;;;;;;5092141;28;20089;-48
2023/09/23 06:37:33;;;;;;;7.80;6.95;;;12.30;91.90;;;;;;5092698;28;20063;-44
2023/09/23 06:40:01;;;;;;;8.02;5.80;;;12.30;91.90;;;;;;5055801;28;20056;-47
2023/09/23 06:42:31;;;;;;;6.32;5.35;;;12.30;92.00;;;;;;5065652;28;20090;-45
2023/09/23 06:44:58;;;;;;;7.30;6.60;;;12.40;92.10;;;;;;5053870;28;20462;-46
2023/09/23 06:47:27;;;;;;;8.63;6.65;;;12.40;91.80;;;;;;5053727;28;20075;-47
2023/09/23 06:49:54;;;;;;;7.72;5.88;;;12.40;91.90;;;;;;5062259;28;20025;-47
2023/09/23 06:52:20;;;;;;;7.13;6.40;;;12.50;91.80;;;;;;5053473;28;20442;-47
2023/09/23 06:54:47;;;;;;;7.53;5.80;;;12.50;91.60;;;;;;5052720;28;20094;-47
2023/09/23 06:57:13;;;;;;;7.38;6.05;;;12.50;91.70;;;;;;5069263;28;20021;-44
2023/09/23 06:59:40;;;;;;;5.28;4.70;;;12.60;91.70;;;;;;5066524;28;20124;-48
2023/09/23 07:02:06;;;;;;;8.80;6.25;;;12.70;91.80;;;;;;5072953;28;20354;-47
2023/09/23 07:04:36;;;;;;;8.07;6.22;;;12.80;91.60;;;;;;5073445;28;20036;-45
2023/09/23 07:07:02;;;;;;;7.97;6.15;;;12.90;91.50;;;;;;5073076;28;20082;-49
2023/09/23 07:09:28;;;;;;;7.68;5.45;;;12.90;91.50;;;;;;5061229;28;20458;-45
2023/09/23 07:11:55;;;;;;;6.93;5.28;;;13.00;91.30;;;;;;5069533;28;20544;-48
2023/09/23 07:14:21;;;;;;;6.43;5.53;;;13.10;91.20;;;;;;5073443;28;20745;-45
2023/09/23 07:16:48;;;;;;;6.47;5.13;;;13.20;90.90;;;;;;5073183;28;20029;-47
2023/09/23 07:19:17;;;;;;;5.60;4.75;;;13.20;90.70;;;;;;5053217;28;20039;-46
2023/09/23 07:21:44;;;;;;;5.60;4.57;;;13.30;90.40;;;;;;5053198;28;20560;-46
2023/09/23 07:24:12;;;;;;;7.03;4.32;;;13.30;90.30;;;;;;5053344;28;20446;-45
2023/09/23 07:26:39;;;;;;;6.90;4.82;;;13.40;90.10;;;;;;5053213;28;20096;-47
2023/09/23 07:29:06;;;;;;;4.35;3.70;;;13.50;89.90;;;;;;5054218;28;20021;-53
2023/09/23 07:31:31;;;;;;;7.07;4.30;;;13.70;89.70;;;;;;5052728;28;20083;-49
2023/09/23 07:33:58;;;;;;;5.35;3.22;;;13.90;89.00;;;;;;5053966;28;20033;-46
2023/09/23 07:36:28;;;;;;;4.30;3.10;;;14.30;88.30;;;;;;5060408;28;20435;-46
2023/09/23 07:38:57;;;;;;;6.63;3.70;;;14.40;87.10;;;;;;5061314;28;20076;-50
2023/09/23 07:41:25;;;;;;;4.22;3.25;;;14.50;86.20;;;;;;5055669;28;20039;-48
2023/09/23 07:43:51;;;;;;;5.97;3.60;;;14.40;86.60;;;;;;5073326;28;20436;-48
2023/09/23 07:46:20;;;;;;;4.30;3.10;;;14.40;86.50;;;;;;5055622;28;20025;-52
2023/09/23 07:48:47;;;;;;;4.05;2.97;;;14.40;86.10;;;;;;5072731;28;20028;-48
2023/09/23 07:51:15;;;;;;;5.78;3.38;;;14.40;85.90;;;;;;5059035;28;20124;-48
2023/09/23 07:53:43;;;;;;;4.07;3.05;;;14.50;85.90;;;;;;5090557;28;20118;-50
2023/09/23 07:56:11;;;;;;;5.60;3.78;;;14.60;85.70;;;;;;5092962;28;20093;-48
2023/09/23 07:58:38;;;;;;;5.10;3.78;;;14.70;85.50;;;;;;5092413;28;20052;-47
2023/09/23 08:01:09;;;;;;;5.45;3.65;;;14.60;85.00;;;;;;5084530;28;20021;-49
2023/09/23 08:03:36;;;;;;;5.20;3.55;;;14.50;85.80;;;;;;5072525;28;20021;-53
2023/09/23 08:06:02;;;;;;;6.55;4.30;;;14.50;85.90;;;;;;5086843;28;20077;-48
2023/09/23 08:08:27;;;;;;;5.45;4.03;;;14.40;85.50;;;;;;5084435;28;20033;-51
2023/09/23 08:10:54;;;;;;;6.32;4.32;;;14.50;86.00;;;;;;5086477;28;20346;-50
2023/09/23 08:13:22;;;;;;;6.43;3.78;;;14.60;86.10;;;;;;5092984;28;20096;-48
2023/09/23 08:15:56;;;;;;;5.95;4.25;;;14.60;85.80;;;;;;5092894;28;20077;-49
2023/09/23 08:18:24;;;;;;;6.22;4.88;;;14.50;85.60;;;;;;5067905;28;20695;-48
2023/09/23 08:21:00;;;;;;;4.90;4.28;;;14.50;85.70;;;;;;5083004;28;20028;-49
2023/09/23 08:23:29;;;;;;;5.65;4.40;;;14.50;85.80;;;;;;5061937;28;20024;-48
2023/09/23 08:26:10;;;;;;;5.50;4.07;;;14.80;86.20;;;;;;5073026;28;20052;-50
2023/09/23 08:28:36;;;;;;;6.75;4.45;;;15.20;86.40;;;;;;5072216;28;20029;-50
2023/09/23 08:31:03;;;;;;;7.80;5.50;;;15.30;85.80;;;;;;5084542;28;20034;-54
2023/09/23 08:33:32;;;;;;;9.23;5.78;;;15.40;84.80;;;;;;5092115;28;20028;-51
2023/09/23 08:35:59;;;;;;;;;;;15.60;84.50;;;;;;5073261;28;20098;-50
2023/09/23 08:38:28;;;;;;;8.70;6.95;;;15.60;83.90;;;;;;5071895;28;19916;-52
2023/09/23 08:40:55;;;;;;;7.22;6.07;;;15.50;83.80;;;;;;5065178;28;20036;-49
2023/09/23 08:43:36;;;;;;;7.38;6.57;;;15.50;83.60;;;;;;5088540;28;20021;-52
2023/09/23 08:46:09;;;;;;;8.98;6.57;;;15.60;84.10;;;;;;5055876;28;20094;-53
2023/09/23 08:48:37;;;;;;;8.05;7.25;;;15.90;83.80;;;;;;5042335;28;20123;-52
2023/09/23 08:51:11;;;;;;;9.45;7.45;;;16.40;82.30;;;;;;5049913;28;20731;-52
2023/09/23 08:53:43;;;;;;;8.35;7.35;;;16.60;81.40;;;;;;5096450;28;20034;-53
2023/09/23 08:56:11;;;;;;;9.95;7.55;;;16.70;80.50;;;;;;5078364;28;20056;-51
2023/09/23 08:58:39;;;;;;;8.60;7.70;;;17.10;79.60;;;;;;5089412;28;20353;-50
2023/09/23 09:01:07;;;;;;;12.40;8.15;;;17.30;79.40;;;;;;5095750;28;20024;-49
2023/09/23 09:03:35;;;;;;;8.68;7.88;;;17.40;78.70;;;;;;5095852;28;20463;-50
2023/09/23 09:06:04;;;;;;;10.27;8.07;;;17.00;77.70;;;;;;5093408;28;20060;-50
2023/09/23 09:08:34;;;;;;;10.40;9.25;;;16.90;78.20;;;;;;5078050;28;20030;-51
2023/09/23 09:11:01;;;;;;;10.73;8.88;;;16.70;79.40;;;;;;5095163;28;20039;-48
2023/09/23 09:13:30;;;;;;;9.35;8.15;;;16.60;80.00;;;;;;5095609;28;20028;-49
2023/09/23 09:15:57;;;;;;;9.90;8.90;;;16.70;80.30;;;;;;5094815;28;20036;-49
2023/09/23 09:18:25;;;;;;;10.73;8.85;;;16.70;79.60;;;;;;5095753;28;20028;-51
2023/09/23 09:20:53;;;;;;;9.82;8.93;;;16.70;79.90;;;;;;5079049;28;20027;-54
2023/09/23 09:23:21;;;;;;;10.73;9.63;;;16.80;79.30;;;;;;5095702;28;20484;-53
2023/09/23 09:25:49;;;;;;;9.10;8.20;;;16.70;80.60;;;;;;5074293;28;20502;-48
2023/09/23 09:28:18;;;;;;;9.57;8.68;;;16.80;80.30;;;;;;5095496;28;20115;-51
2023/09/23 09:30:54;;;;;;;9.82;8.85;;;16.70;79.10;;;;;;5076945;28;20028;-48
2023/09/23 09:33:21;;;;;;;9.95;8.95;;;16.90;79.10;;;;;;5077210;28;20552;-51
2023/09/23 09:35:57;;;;;;;9.88;8.98;;;16.80;78.60;;;;;;5094744;28;20051;-55
2023/09/23 09:38:40;;;;;;;10.60;9.60;;;16.90;78.60;;;;;;5095051;28;20062;-49
2023/09/23 09:41:29;;;;;;;9.23;7.82;;;16.60;78.40;;;;;;5094628;28;20043;-53
2023/09/23 09:44:02;;;;;;;8.63;7.82;;;16.60;79.60;;;;;;5095122;28;20445;-52
2023/09/23 09:46:33;;;;;;;10.70;9.20;;;16.30;80.00;;;;;;5077166;28;20032;-53
2023/09/23 09:49:02;;;;;;;8.98;8.07;;;16.30;80.60;;;;;;5076656;28;20041;-50
2023/09/23 09:51:40;;;;;;;10.17;9.23;;;16.20;81.00;;;;;;5092867;28;20081;-52
2023/09/23 09:54:11;;;;;;;11.70;8.70;;;16.30;80.40;;;;;;5074640;28;20028;-55
2023/09/23 09:56:43;;;;;;;10.90;9.65;;;16.40;80.00;;;;;;5074615;28;20057;-49
2023/09/23 09:59:10;;;;;;;9.88;8.30;;;16.40;81.40;;;;;;5082054;28;20422;-49
2023/09/23 10:01:36;;;;;;;9.43;8.52;;;16.30;81.20;;;;;;5072166;28;20060;-51
2023/09/23 10:04:10;;;;;;;10.18;8.52;;;16.40;81.10;;;;;;5088329;28;20055;-52
2023/09/23 10:06:39;;;;;;;10.15;9.15;;;16.60;79.60;;;;;;5087396;28;20024;-50
2023/09/23 10:09:17;;;;;;;9.88;7.97;;;16.80;79.30;;;;;;5075643;28;20449;-51
2023/09/23 10:11:53;;;;;;;10.43;8.05;;;16.90;79.20;;;;;;5074803;28;20044;-52
2023/09/23 10:14:27;;;;;;;10.02;8.93;;;16.80;79.40;;;;;;5073875;28;20063;-53
2023/09/23 10:17:05;;;;;;;9.57;8.25;;;16.80;79.80;;;;;;5076465;28;20522;-51
2023/09/23 10:19:53;;;;;;;9.48;8.10;;;16.90;79.10;;;;;;5094862;28;20510;-51
2023/09/23 10:22:20;;;;;;;11.13;8.68;;;17.00;78.20;;;;;;5088561;28;20476;-49
2023/09/23 10:25:11;;;;;;;8.73;7.82;;;17.00;79.00;;;;;;5094620;28;20463;-50
2023/09/23 10:27:41;;;;;;;8.93;8.13;;;17.10;79.40;;;;;;5040041;28;20035;-54
2023/09/23 10:30:22;;;;;;;7.97;7.03;;;17.30;79.20;;;;;;5073096;28;20104;-51
2023/09/23 10:32:49;;;;;;;9.18;7.55;;;17.30;78.80;;;;;;5091919;28;20127;-52
2023/09/23 10:35:26;;;;;;;8.00;6.43;;;17.10;78.50;;;;;;5088990;28;20040;-53
2023/09/23 10:37:52;;;;;;;7.75;6.22;;;17.00;78.80;;;;;;5062127;28;20040;-51
2023/09/23 10:40:22;;;;;;;7.40;5.82;;;16.90;80.00;;;;;;5092678;28;20070;-51
2023/09/23 10:42:50;;;;;;;8.35;7.50;;;16.90;79.60;;;;;;5083167;28;20032;-49
2023/09/23 10:45:20;;;;;;;12.45;7.28;;;16.90;80.20;;;;;;5094124;28;20031;-49
2023/09/23 10:47:48;;;;;;;8.20;7.40;;;16.90;80.30;;;;;;5094168;28;20323;-49
2023/09/23 10:50:15;;;;;;;7.55;6.80;;;16.80;79.70;;;;;;5080359;28;20028;-50
2023/09/23 10:52:42;;;;;;;9.02;6.65;;;16.80;80.10;;;;;;5088611;28;20027;-50
2023/09/23 10:55:11;;;;;;;9.73;7.03;;;16.70;79.90;;;;;;5079803;28;20438;-57
2023/09/23 10:57:42;;;;;;;8.60;7.43;;;16.90;80.50;;;;;;5093321;28;20034;-50
2023/09/23 11:00:21;;;;;;;10.35;8.13;;;16.90;80.20;;;;;;5082295;28;20043;-48
2023/09/23 11:02:56;;;;;;;9.45;7.75;;;17.00;79.40;;;;;;5093877;28;20110;-51
2023/09/23 11:05:24;;;;;;;7.40;6.68;;;17.20;79.40;;;;;;5093637;28;20020;-53
2023/09/23 11:07:54;;;;;;;7.88;7.07;;;17.20;79.00;;;;;;5092735;28;20028;-51
2023/09/23 11:10:23;;;;;;;8.93;7.00;;;17.00;78.20;;;;;;5089535;28;20442;-50
2023/09/23 11:12:55;;;;;;;9.45;6.57;;;17.00;79.00;;;;;;5056182;28;20101;-56
2023/09/23 11:15:22;;;;;;;7.75;6.97;;;17.10;79.30;;;;;;5055727;28;20028;-50
2023/09/23 11:17:49;;;;;;;7.05;6.25;;;17.10;79.00;;;;;;5065213;28;20032;-49
2023/09/23 11:20:26;;;;;;;7.38;5.57;;;17.20;79.00;;;;;;5071136;28;20040;-48
2023/09/23 11:23:10;;;;;;;9.18;6.15;;;17.40;79.30;;;;;;5055547;28;20566;-52
2023/09/23 11:25:46;;;;;;;6.65;5.90;;;17.40;79.10;;;;;;5073737;28;20071;-51
2023/09/23 11:28:31;;;;;;;6.55;5.78;;;17.50;77.90;;;;;;5093429;28;20103;-52
2023/09/23 11:30:58;;;;;;;7.55;4.55;;;17.40;78.10;;;;;;5093297;28;20056;-50
2023/09/23 11:33:25;;;;;;;9.65;7.43;;;17.40;78.40;;;;;;5092050;28;20465;-50
2023/09/23 11:35:54;;;;;;;8.40;5.70;;;17.50;78.80;;;;;;5090275;28;20368;-49
2023/09/23 11:38:24;;;;;;;8.40;6.00;;;17.60;78.80;;;;;;5066994;28;20053;-50
2023/09/23 11:40:54;;;;;;;8.05;6.97;;;17.50;78.00;;;;;;5048400;28;20140;-51
2023/09/23 11:43:24;;;;;;;7.03;5.85;;;17.70;77.50;;;;;;5033358;28;20029;-50
2023/09/23 11:45:52;;;;;;;6.28;4.45;;;17.90;77.50;;;;;;5033285;28;20135;-49
2023/09/23 11:48:20;;;;;;;7.70;5.03;;;17.90;77.00;;;;;;5045069;28;20041;-53
2023/09/23 11:50:49;;;;;;;6.28;4.95;;;17.80;76.20;;;;;;5052538;28;20056;-50
2023/09/23 11:53:18;;;;;;;6.95;4.80;;;17.80;75.90;;;;;;5052603;28;20466;-50
2023/09/23 11:55:46;;;;;;;6.53;4.47;;;17.90;76.60;;;;;;5052391;28;20087;-52
2023/09/23 11:58:13;;;;;;;6.32;3.92;;;18.10;76.70;;;;;;5051948;28;20035;-52
2023/09/23 12:00:41;;;;;;;6.10;4.75;;;17.90;75.20;;;;;;5052738;28;20021;-49
2023/09/23 12:03:11;;;;;;;7.25;5.03;;;17.90;75.70;;;;;;5052445;28;20422;-51
2023/09/23 12:05:40;;;;;;;6.93;5.57;;;17.60;75.90;;;;;;5051913;28;20031;-50
2023/09/23 12:08:07;;;;;;;6.28;4.85;;;17.40;76.80;;;;;;5052490;28;20108;-52
2023/09/23 12:10:39;;;;;;;5.90;5.05;;;17.20;77.70;;;;;;5052558;28;20088;-50
2023/09/23 12:13:05;;;;;;;8.18;5.15;;;17.20;78.60;;;;;;5033026;28;20354;-51
2023/09/23 12:15:33;;;;;;;7.78;4.60;;;17.30;78.60;;;;;;5032628;28;20026;-49
2023/09/23 12:18:02;;;;;;;5.32;4.75;;;17.40;78.50;;;;;;5046179;28;20025;-47
2023/09/23 12:20:31;;;;;;;4.82;4.18;;;17.40;78.00;;;;;;5041287;28;20097;-51
2023/09/23 12:23:00;;;;;;;7.63;4.20;;;17.30;77.60;;;;;;5045401;28;20036;-52
2023/09/23 12:25:28;;;;;;;7.07;4.75;;;17.30;77.80;;;;;;5056792;28;20040;-48
2023/09/23 12:27:55;;;;;;;5.93;4.53;;;17.20;78.00;;;;;;5043102;28;20083;-53
2023/09/23 12:30:21;;;;;;;6.32;4.10;;;17.00;79.20;;;;;;5042779;28;20021;-53
2023/09/23 12:32:48;;;;;;;7.82;3.85;;;17.00;79.50;;;;;;5056054;28;20108;-51
2023/09/23 12:35:15;;;;;;;6.22;4.15;;;16.90;79.20;;;;;;5056158;28;20064;-49
2023/09/23 12:37:43;;;;;;;6.13;3.65;;;16.80;79.10;;;;;;5055804;28;20029;-50
2023/09/23 12:40:16;;;;;;;4.88;2.78;;;16.80;79.40;;;;;;5092968;28;20097;-48
2023/09/23 12:42:42;;;;;;;6.28;3.80;;;16.70;79.60;;;;;;5096609;28;20457;-52
2023/09/23 12:45:11;;;;;;;5.47;3.83;;;16.50;81.00;;;;;;5086541;28;20047;-49
2023/09/23 12:47:41;;;;;;;9.15;4.22;;;16.50;82.20;;;;;;5076189;28;20060;-49
2023/09/23 12:50:12;;;;;;;12.45;3.17;;;16.20;84.20;;;;;;5091620;28;20028;-55
2023/09/23 12:52:42;;;;;;;4.25;1.48;;;15.90;84.80;;;;;;5090839;28;20441;-52
2023/09/23 12:55:08;;;;;;;5.20;1.30;;;15.40;85.30;;;;;;5075896;28;20097;-49
2023/09/23 12:57:34;;;;;;;4.60;1.23;;;14.90;86.80;;;;;;5071856;28;20032;-55
2023/09/23 13:00:03;;;;;;;6.88;1.23;;;14.60;87.80;;;;;;5057978;28;20060;-50